sensor_id;sensor_type;location;lat;lon;timestamp;P1;durP1;ratioP1;P2;durP2;ratioP2
51616;SDS011;37697;52.588;13.394;2023-04-01T00:03:50;3.80;;;2.30;;
51616;SDS011;37697;52.588;13.394;2023-04-01T00:09:16;4.00;;;2.30;;
51616;SDS011;37697;52.588;13.394;2023-04-01T00:14:43;4.70;;;2.10;;
51616;SDS011;37697;52.588;13.394;2023-04-01T00:20:10;4.70;;;2.40;;
51616;SDS011;37697;52.588;13.394;2023-04-01T00:25:36;2.80;;;1.90;;
51616;SDS011;37697;52.588;13.394;2023-04-01T00:31:05;3.50;;;2.00;;
51616;SDS011;37697;52.588;13.394;2023-04-01T00:36:32;4.50;;;2.30;;
51616;SDS011;37697;52.588;13.394;2023-04-01T00:41:58;4.00;;;2.30;;
51616;SDS011;37697;52.588;13.394;2023-04-01T00:47:25;3.50;;;1.70;;
51616;SDS011;37697;52.588;13.394;2023-04-01T00:52:53;4.60;;;2.00;;
51616;SDS011;37697;52.588;13.394;2023-04-01T00:58:20;3.30;;;1.80;;
51616;SDS011;37697;52.588;13.394;2023-04-01T01:03:47;3.80;;;1.90;;
51616;SDS011;37697;52.588;13.394;2023-04-01T01:09:06;5.10;;;2.20;;
51616;SDS011;37697;52.588;13.394;2023-04-01T01:14:48;3.70;;;1.80;;
51616;SDS011;37697;52.588;13.394;2023-04-01T01:20:28;3.70;;;1.90;;
51616;SDS011;37697;52.588;13.394;2023-04-01T01:26:14;4.30;;;2.20;;
51616;SDS011;37697;52.588;13.394;2023-04-01T01:31:56;4.10;;;2.10;;
51616;SDS011;37697;52.588;13.394;2023-04-01T01:37:29;3.30;;;2.00;;
51616;SDS011;37697;52.588;13.394;2023-04-01T01:42:59;3.20;;;2.20;;
51616;SDS011;37697;52.588;13.394;2023-04-01T01:48:27;2.90;;;1.90;;
51616;SDS011;37697;52.588;13.394;2023-04-01T01:53:56;4.00;;;2.00;;
51616;SDS011;37697;52.588;13.394;2023-04-01T01:59:21;4.40;;;2.20;;
51616;SDS011;37697;52.588;13.394;2023-04-01T02:04:48;3.20;;;2.00;;
51616;SDS011;37697;52.588;13.394;2023-04-01T02:10:16;2.80;;;1.90;;
51616;SDS011;37697;52.588;13.394;2023-04-01T02:15:48;5.90;;;2.30;;
51616;SDS011;37697;52.588;13.394;2023-04-01T02:21:17;4.50;;;2.40;;
51616;SDS011;37697;52.588;13.394;2023-04-01T02:26:45;4.00;;;2.30;;
51616;SDS011;37697;52.588;13.394;2023-04-01T02:32:12;5.20;;;1.80;;
51616;SDS011;37697;52.588;13.394;2023-04-01T02:37:39;5.30;;;2.20;;
51616;SDS011;37697;52.588;13.394;2023-04-01T02:43:06;3.60;;;2.00;;
51616;SDS011;37697;52.588;13.394;2023-04-01T02:48:31;3.40;;;2.00;;
51616;SDS011;37697;52.588;13.394;2023-04-01T02:53:57;3.10;;;1.70;;
51616;SDS011;37697;52.588;13.394;2023-04-01T02:59:23;3.70;;;2.10;;
51616;SDS011;37697;52.588;13.394;2023-04-01T03:04:49;3.80;;;1.90;;
51616;SDS011;37697;52.588;13.394;2023-04-01T03:10:15;6.60;;;2.50;;
51616;SDS011;37697;52.588;13.394;2023-04-01T03:15:41;4.90;;;1.90;;
51616;SDS011;37697;52.588;13.394;2023-04-01T03:21:14;5.30;;;2.30;;
51616;SDS011;37697;52.588;13.394;2023-04-01T03:26:42;3.50;;;1.90;;
51616;SDS011;37697;52.588;13.394;2023-04-01T03:32:08;5.00;;;2.00;;
51616;SDS011;37697;52.588;13.394;2023-04-01T03:37:34;4.80;;;2.40;;
51616;SDS011;37697;52.588;13.394;2023-04-01T03:42:59;4.40;;;2.20;;
51616;SDS011;37697;52.588;13.394;2023-04-01T03:48:25;4.80;;;2.40;;
51616;SDS011;37697;52.588;13.394;2023-04-01T03:53:51;4.00;;;2.50;;
51616;SDS011;37697;52.588;13.394;2023-04-01T03:59:17;4.50;;;2.00;;
51616;SDS011;37697;52.588;13.394;2023-04-01T04:04:42;3.60;;;2.20;;
51616;SDS011;37697;52.588;13.394;2023-04-01T04:10:08;4.60;;;2.40;;
51616;SDS011;37697;52.588;13.394;2023-04-01T04:15:34;3.60;;;2.60;;
51616;SDS011;37697;52.588;13.394;2023-04-01T04:21:00;3.10;;;2.20;;
51616;SDS011;37697;52.588;13.394;2023-04-01T04:26:28;4.40;;;2.80;;
51616;SDS011;37697;52.588;13.394;2023-04-01T04:31:53;5.20;;;2.80;;
51616;SDS011;37697;52.588;13.394;2023-04-01T04:37:19;6.00;;;2.90;;
51616;SDS011;37697;52.588;13.394;2023-04-01T04:42:45;5.60;;;2.90;;
51616;SDS011;37697;52.588;13.394;2023-04-01T04:48:24;5.30;;;2.90;;
51616;SDS011;37697;52.588;13.394;2023-04-01T04:53:50;5.90;;;3.00;;
51616;SDS011;37697;52.588;13.394;2023-04-01T04:59:16;4.90;;;2.90;;
51616;SDS011;37697;52.588;13.394;2023-04-01T05:04:42;4.30;;;2.30;;
51616;SDS011;37697;52.588;13.394;2023-04-01T05:10:08;3.20;;;2.20;;
51616;SDS011;37697;52.588;13.394;2023-04-01T05:15:34;6.10;;;2.50;;
51616;SDS011;37697;52.588;13.394;2023-04-01T05:21:01;4.60;;;2.50;;
51616;SDS011;37697;52.588;13.394;2023-04-01T05:26:26;4.50;;;2.50;;
51616;SDS011;37697;52.588;13.394;2023-04-01T05:31:52;6.90;;;2.60;;
51616;SDS011;37697;52.588;13.394;2023-04-01T05:37:18;5.20;;;3.70;;
51616;SDS011;37697;52.588;13.394;2023-04-01T05:42:44;4.80;;;2.80;;
51616;SDS011;37697;52.588;13.394;2023-04-01T05:48:09;5.30;;;3.20;;
51616;SDS011;37697;52.588;13.394;2023-04-01T05:53:35;5.70;;;3.00;;
51616;SDS011;37697;52.588;13.394;2023-04-01T05:59:01;7.40;;;3.50;;
51616;SDS011;37697;52.588;13.394;2023-04-01T06:04:27;6.70;;;3.60;;
51616;SDS011;37697;52.588;13.394;2023-04-01T06:09:57;5.20;;;3.60;;
51616;SDS011;37697;52.588;13.394;2023-04-01T06:15:28;6.40;;;3.60;;
51616;SDS011;37697;52.588;13.394;2023-04-01T06:21:00;6.30;;;4.10;;
51616;SDS011;37697;52.588;13.394;2023-04-01T06:26:37;6.80;;;3.80;;
51616;SDS011;37697;52.588;13.394;2023-04-01T06:32:16;8.70;;;4.60;;
51616;SDS011;37697;52.588;13.394;2023-04-01T06:38:04;8.00;;;4.80;;
51616;SDS011;37697;52.588;13.394;2023-04-01T06:43:50;6.70;;;4.40;;
51616;SDS011;37697;52.588;13.394;2023-04-01T06:49:28;7.10;;;4.20;;
51616;SDS011;37697;52.588;13.394;2023-04-01T06:55:01;9.10;;;5.30;;
51616;SDS011;37697;52.588;13.394;2023-04-01T07:00:40;7.30;;;4.80;;
51616;SDS011;37697;52.588;13.394;2023-04-01T07:06:10;7.10;;;4.00;;
51616;SDS011;37697;52.588;13.394;2023-04-01T07:11:40;6.40;;;4.10;;
51616;SDS011;37697;52.588;13.394;2023-04-01T07:17:08;7.40;;;4.20;;
51616;SDS011;37697;52.588;13.394;2023-04-01T07:22:40;6.40;;;4.30;;
51616;SDS011;37697;52.588;13.394;2023-04-01T07:28:12;9.60;;;7.20;;
51616;SDS011;37697;52.588;13.394;2023-04-01T07:33:43;8.70;;;6.40;;
51616;SDS011;37697;52.588;13.394;2023-04-01T07:39:21;8.00;;;5.50;;
51616;SDS011;37697;52.588;13.394;2023-04-01T07:44:57;7.10;;;4.80;;
51616;SDS011;37697;52.588;13.394;2023-04-01T07:50:34;6.20;;;3.90;;
51616;SDS011;37697;52.588;13.394;2023-04-01T07:56:15;3.90;;;2.50;;
51616;SDS011;37697;52.588;13.394;2023-04-01T08:01:52;5.40;;;3.30;;
51616;SDS011;37697;52.588;13.394;2023-04-01T08:07:27;4.60;;;3.40;;
51616;SDS011;37697;52.588;13.394;2023-04-01T08:13:02;5.60;;;3.90;;
51616;SDS011;37697;52.588;13.394;2023-04-01T08:18:39;6.30;;;4.60;;
51616;SDS011;37697;52.588;13.394;2023-04-01T08:24:13;7.00;;;4.40;;
51616;SDS011;37697;52.588;13.394;2023-04-01T08:29:51;6.60;;;5.00;;
51616;SDS011;37697;52.588;13.394;2023-04-01T08:35:26;8.80;;;6.30;;
51616;SDS011;37697;52.588;13.394;2023-04-01T08:41:01;10.00;;;6.60;;
51616;SDS011;37697;52.588;13.394;2023-04-01T08:46:56;7.30;;;5.90;;
51616;SDS011;37697;52.588;13.394;2023-04-01T08:52:36;9.50;;;6.50;;
51616;SDS011;37697;52.588;13.394;2023-04-01T08:58:11;8.20;;;6.60;;
51616;SDS011;37697;52.588;13.394;2023-04-01T09:03:54;9.80;;;7.20;;
51616;SDS011;37697;52.588;13.394;2023-04-01T09:09:45;7.60;;;6.30;;
51616;SDS011;37697;52.588;13.394;2023-04-01T09:15:37;6.90;;;5.80;;
51616;SDS011;37697;52.588;13.394;2023-04-01T09:27:11;8.10;;;6.50;;
51616;SDS011;37697;52.588;13.394;2023-04-01T09:32:50;8.20;;;7.20;;
51616;SDS011;37697;52.588;13.394;2023-04-01T09:38:36;7.00;;;6.10;;
51616;SDS011;37697;52.588;13.394;2023-04-01T09:44:13;8.10;;;7.20;;
51616;SDS011;37697;52.588;13.394;2023-04-01T09:49:50;8.30;;;7.50;;
51616;SDS011;37697;52.588;13.394;2023-04-01T10:01:28;6.90;;;6.20;;
51616;SDS011;37697;52.588;13.394;2023-04-01T10:07:30;7.10;;;6.40;;
51616;SDS011;37697;52.588;13.394;2023-04-01T10:19:20;7.70;;;6.60;;
51616;SDS011;37697;52.588;13.394;2023-04-01T10:25:13;8.20;;;7.40;;
51616;SDS011;37697;52.588;13.394;2023-04-01T10:30:56;8.20;;;7.40;;
51616;SDS011;37697;52.588;13.394;2023-04-01T10:36:49;8.50;;;7.70;;
51616;SDS011;37697;52.588;13.394;2023-04-01T10:48:33;7.80;;;7.00;;
51616;SDS011;37697;52.588;13.394;2023-04-01T10:54:28;7.20;;;6.30;;
51616;SDS011;37697;52.588;13.394;2023-04-01T11:00:16;7.90;;;7.10;;
51616;SDS011;37697;52.588;13.394;2023-04-01T11:06:13;8.40;;;7.50;;
51616;SDS011;37697;52.588;13.394;2023-04-01T11:12:24;7.10;;;6.40;;
51616;SDS011;37697;52.588;13.394;2023-04-01T11:18:23;7.80;;;6.70;;
51616;SDS011;37697;52.588;13.394;2023-04-01T11:24:09;8.20;;;7.20;;
51616;SDS011;37697;52.588;13.394;2023-04-01T11:29:57;7.00;;;6.30;;
51616;SDS011;37697;52.588;13.394;2023-04-01T11:41:34;8.50;;;7.70;;
51616;SDS011;37697;52.588;13.394;2023-04-01T11:47:16;8.80;;;8.00;;
51616;SDS011;37697;52.588;13.394;2023-04-01T11:52:59;8.30;;;7.50;;
51616;SDS011;37697;52.588;13.394;2023-04-01T11:58:51;6.70;;;6.00;;
51616;SDS011;37697;52.588;13.394;2023-04-01T12:04:32;7.50;;;6.70;;
51616;SDS011;37697;52.588;13.394;2023-04-01T12:10:17;7.40;;;6.60;;
51616;SDS011;37697;52.588;13.394;2023-04-01T12:15:59;6.90;;;6.10;;
51616;SDS011;37697;52.588;13.394;2023-04-01T12:22:16;9.20;;;7.30;;
51616;SDS011;37697;52.588;13.394;2023-04-01T12:28:06;8.20;;;7.40;;
51616;SDS011;37697;52.588;13.394;2023-04-01T12:33:54;7.50;;;6.70;;
51616;SDS011;37697;52.588;13.394;2023-04-01T12:39:50;8.40;;;7.50;;
51616;SDS011;37697;52.588;13.394;2023-04-01T12:45:30;9.70;;;8.70;;
51616;SDS011;37697;52.588;13.394;2023-04-01T12:51:00;9.20;;;8.30;;
51616;SDS011;37697;52.588;13.394;2023-04-01T12:56:34;10.10;;;8.30;;
51616;SDS011;37697;52.588;13.394;2023-04-01T13:02:14;9.40;;;8.40;;
51616;SDS011;37697;52.588;13.394;2023-04-01T13:07:54;10.60;;;9.60;;
51616;SDS011;37697;52.588;13.394;2023-04-01T13:13:38;10.20;;;9.10;;
51616;SDS011;37697;52.588;13.394;2023-04-01T13:19:36;8.10;;;7.30;;
51616;SDS011;37697;52.588;13.394;2023-04-01T13:25:10;8.70;;;7.70;;
51616;SDS011;37697;52.588;13.394;2023-04-01T13:30:47;7.40;;;6.00;;
51616;SDS011;37697;52.588;13.394;2023-04-01T13:36:22;7.30;;;6.00;;
51616;SDS011;37697;52.588;13.394;2023-04-01T13:41:56;6.10;;;5.20;;
51616;SDS011;37697;52.588;13.394;2023-04-01T13:54:01;4.40;;;3.30;;
51616;SDS011;37697;52.588;13.394;2023-04-01T13:59:43;4.90;;;3.10;;
51616;SDS011;37697;52.588;13.394;2023-04-01T14:05:35;4.90;;;3.40;;
51616;SDS011;37697;52.588;13.394;2023-04-01T14:11:13;4.60;;;3.50;;
51616;SDS011;37697;52.588;13.394;2023-04-01T14:17:03;4.60;;;3.00;;
51616;SDS011;37697;52.588;13.394;2023-04-01T14:22:45;4.40;;;2.70;;
51616;SDS011;37697;52.588;13.394;2023-04-01T14:28:26;4.20;;;2.90;;
51616;SDS011;37697;52.588;13.394;2023-04-01T14:33:54;4.30;;;3.00;;
51616;SDS011;37697;52.588;13.394;2023-04-01T14:39:43;5.90;;;3.20;;
51616;SDS011;37697;52.588;13.394;2023-04-01T14:45:46;4.70;;;3.10;;
51616;SDS011;37697;52.588;13.394;2023-04-01T14:51:30;4.90;;;2.70;;
51616;SDS011;37697;52.588;13.394;2023-04-01T14:57:04;3.80;;;2.10;;
51616;SDS011;37697;52.588;13.394;2023-04-01T15:02:43;3.90;;;2.00;;
51616;SDS011;37697;52.588;13.394;2023-04-01T15:08:19;4.90;;;2.90;;
51616;SDS011;37697;52.588;13.394;2023-04-01T15:14:08;5.00;;;3.70;;
51616;SDS011;37697;52.588;13.394;2023-04-01T15:19:52;5.40;;;3.70;;
51616;SDS011;37697;52.588;13.394;2023-04-01T15:25:36;5.90;;;4.40;;
51616;SDS011;37697;52.588;13.394;2023-04-01T15:31:15;7.60;;;4.10;;
51616;SDS011;37697;52.588;13.394;2023-04-01T15:36:47;6.10;;;4.00;;
51616;SDS011;37697;52.588;13.394;2023-04-01T15:42:23;6.40;;;4.10;;
51616;SDS011;37697;52.588;13.394;2023-04-01T15:47:59;6.80;;;4.30;;
51616;SDS011;37697;52.588;13.394;2023-04-01T15:59:27;5.30;;;3.40;;
51616;SDS011;37697;52.588;13.394;2023-04-01T16:05:05;5.50;;;3.60;;
51616;SDS011;37697;52.588;13.394;2023-04-01T16:10:51;5.10;;;3.30;;
51616;SDS011;37697;52.588;13.394;2023-04-01T16:16:28;4.50;;;3.20;;
51616;SDS011;37697;52.588;13.394;2023-04-01T16:22:06;5.30;;;3.50;;
51616;SDS011;37697;52.588;13.394;2023-04-01T16:27:40;6.70;;;3.80;;
51616;SDS011;37697;52.588;13.394;2023-04-01T16:33:13;5.30;;;2.80;;
51616;SDS011;37697;52.588;13.394;2023-04-01T16:38:48;6.10;;;3.20;;
51616;SDS011;37697;52.588;13.394;2023-04-01T16:44:20;5.20;;;3.10;;
51616;SDS011;37697;52.588;13.394;2023-04-01T16:49:52;6.30;;;3.20;;
51616;SDS011;37697;52.588;13.394;2023-04-01T16:55:23;5.60;;;3.30;;
51616;SDS011;37697;52.588;13.394;2023-04-01T17:01:05;5.50;;;3.20;;
51616;SDS011;37697;52.588;13.394;2023-04-01T17:06:37;4.60;;;2.90;;
51616;SDS011;37697;52.588;13.394;2023-04-01T17:12:12;6.20;;;3.20;;
51616;SDS011;37697;52.588;13.394;2023-04-01T17:17:47;4.80;;;3.00;;
51616;SDS011;37697;52.588;13.394;2023-04-01T17:23:20;5.10;;;3.30;;
51616;SDS011;37697;52.588;13.394;2023-04-01T17:28:51;4.20;;;2.90;;
51616;SDS011;37697;52.588;13.394;2023-04-01T17:34:25;7.40;;;3.40;;
51616;SDS011;37697;52.588;13.394;2023-04-01T17:40:15;5.10;;;3.10;;
51616;SDS011;37697;52.588;13.394;2023-04-01T17:46:00;5.00;;;2.90;;
51616;SDS011;37697;52.588;13.394;2023-04-01T17:51:35;5.90;;;3.20;;
51616;SDS011;37697;52.588;13.394;2023-04-01T17:57:14;4.90;;;2.90;;
51616;SDS011;37697;52.588;13.394;2023-04-01T18:03:00;5.90;;;3.20;;
51616;SDS011;37697;52.588;13.394;2023-04-01T18:08:40;5.20;;;3.00;;
51616;SDS011;37697;52.588;13.394;2023-04-01T18:14:33;4.80;;;3.40;;
51616;SDS011;37697;52.588;13.394;2023-04-01T18:20:17;5.90;;;3.40;;
51616;SDS011;37697;52.588;13.394;2023-04-01T18:25:50;5.40;;;3.50;;
51616;SDS011;37697;52.588;13.394;2023-04-01T18:31:32;7.00;;;4.00;;
51616;SDS011;37697;52.588;13.394;2023-04-01T18:37:02;6.80;;;4.30;;
51616;SDS011;37697;52.588;13.394;2023-04-01T18:42:43;9.10;;;7.60;;
51616;SDS011;37697;52.588;13.394;2023-04-01T18:48:20;9.00;;;7.20;;
51616;SDS011;37697;52.588;13.394;2023-04-01T18:54:08;8.90;;;5.50;;
51616;SDS011;37697;52.588;13.394;2023-04-01T18:59:44;10.50;;;6.50;;
51616;SDS011;37697;52.588;13.394;2023-04-01T19:05:23;10.20;;;6.20;;
51616;SDS011;37697;52.588;13.394;2023-04-01T19:11:23;9.00;;;5.60;;
51616;SDS011;37697;52.588;13.394;2023-04-01T19:16:56;8.30;;;5.70;;
51616;SDS011;37697;52.588;13.394;2023-04-01T19:22:39;8.10;;;5.50;;
51616;SDS011;37697;52.588;13.394;2023-04-01T19:28:20;10.70;;;6.10;;
51616;SDS011;37697;52.588;13.394;2023-04-01T19:33:56;11.30;;;6.50;;
51616;SDS011;37697;52.588;13.394;2023-04-01T19:39:39;9.30;;;5.80;;
51616;SDS011;37697;52.588;13.394;2023-04-01T19:45:20;10.70;;;6.40;;
51616;SDS011;37697;52.588;13.394;2023-04-01T19:50:56;8.00;;;5.90;;
51616;SDS011;37697;52.588;13.394;2023-04-01T19:56:31;9.60;;;5.70;;
51616;SDS011;37697;52.588;13.394;2023-04-01T20:02:20;11.50;;;6.30;;
51616;SDS011;37697;52.588;13.394;2023-04-01T20:08:00;11.10;;;6.60;;
51616;SDS011;37697;52.588;13.394;2023-04-01T20:18:59;11.70;;;6.70;;
51616;SDS011;37697;52.588;13.394;2023-04-01T20:24:28;10.10;;;5.80;;
51616;SDS011;37697;52.588;13.394;2023-04-01T20:30:21;12.60;;;7.00;;
51616;SDS011;37697;52.588;13.394;2023-04-01T20:36:08;10.10;;;6.50;;
51616;SDS011;37697;52.588;13.394;2023-04-01T20:41:42;13.40;;;7.60;;
51616;SDS011;37697;52.588;13.394;2023-04-01T20:47:24;12.30;;;6.60;;
51616;SDS011;37697;52.588;13.394;2023-04-01T20:53:22;9.20;;;5.50;;
51616;SDS011;37697;52.588;13.394;2023-04-01T20:59:02;12.20;;;6.00;;
51616;SDS011;37697;52.588;13.394;2023-04-01T21:05:08;11.10;;;6.10;;
51616;SDS011;37697;52.588;13.394;2023-04-01T21:10:54;9.40;;;6.00;;
51616;SDS011;37697;52.588;13.394;2023-04-01T21:16:29;9.20;;;5.80;;
51616;SDS011;37697;52.588;13.394;2023-04-01T21:22:21;10.30;;;5.70;;
51616;SDS011;37697;52.588;13.394;2023-04-01T21:28:12;11.70;;;6.00;;
51616;SDS011;37697;52.588;13.394;2023-04-01T21:34:02;11.10;;;6.20;;
51616;SDS011;37697;52.588;13.394;2023-04-01T21:40:00;8.40;;;5.60;;
51616;SDS011;37697;52.588;13.394;2023-04-01T21:45:49;10.80;;;5.50;;
51616;SDS011;37697;52.588;13.394;2023-04-01T21:51:50;8.00;;;5.00;;
51616;SDS011;37697;52.588;13.394;2023-04-01T21:57:36;9.90;;;4.70;;
51616;SDS011;37697;52.588;13.394;2023-04-01T22:03:30;6.60;;;4.80;;
51616;SDS011;37697;52.588;13.394;2023-04-01T22:09:12;7.70;;;5.00;;
51616;SDS011;37697;52.588;13.394;2023-04-01T22:14:50;9.30;;;4.90;;
51616;SDS011;37697;52.588;13.394;2023-04-01T22:20:24;7.90;;;4.80;;
51616;SDS011;37697;52.588;13.394;2023-04-01T22:25:59;7.60;;;4.70;;
51616;SDS011;37697;52.588;13.394;2023-04-01T22:31:32;7.60;;;4.10;;
51616;SDS011;37697;52.588;13.394;2023-04-01T22:37:09;7.40;;;4.70;;
51616;SDS011;37697;52.588;13.394;2023-04-01T22:42:57;9.30;;;5.00;;
51616;SDS011;37697;52.588;13.394;2023-04-01T22:48:31;8.70;;;4.90;;
51616;SDS011;37697;52.588;13.394;2023-04-01T22:54:07;7.60;;;4.00;;
51616;SDS011;37697;52.588;13.394;2023-04-01T22:59:41;8.00;;;4.80;;
51616;SDS011;37697;52.588;13.394;2023-04-01T23:05:11;10.30;;;4.90;;
51616;SDS011;37697;52.588;13.394;2023-04-01T23:10:42;6.10;;;4.40;;
51616;SDS011;37697;52.588;13.394;2023-04-01T23:16:12;7.90;;;4.10;;
51616;SDS011;37697;52.588;13.394;2023-04-01T23:21:39;8.20;;;4.00;;
51616;SDS011;37697;52.588;13.394;2023-04-01T23:27:10;5.60;;;3.70;;
51616;SDS011;37697;52.588;13.394;2023-04-01T23:32:44;7.80;;;3.70;;
51616;SDS011;37697;52.588;13.394;2023-04-01T23:38:10;6.40;;;3.50;;
51616;SDS011;37697;52.588;13.394;2023-04-01T23:43:36;6.40;;;3.60;;
51616;SDS011;37697;52.588;13.394;2023-04-01T23:49:05;7.90;;;3.80;;
51616;SDS011;37697;52.588;13.394;2023-04-01T23:54:40;6.10;;;4.00;;
